Time;durP1;ratioP1;P1;durP2;ratioP2;P2;SDS_P1;SDS_P2;PMS_P1;PMS_P2;Temp;Humidity;BMP_temperature;BMP_pressure;BME280_temperature;BME280_humidity;BME280_pressure;Samples;Min_cycle;Max_cycle;Signal;HPM_P1;HPM_P2
2022/10/05 00:02:18;;;;;;;2.35;2.15;;;12.20;99.90;;;;;;5062436;28;20203;-73
2022/10/05 00:04:45;;;;;;;2.28;2.17;;;12.20;99.90;;;;;;5069145;28;20751;-73
2022/10/05 00:07:15;;;;;;;2.45;2.35;;;12.20;99.90;;;;;;5063993;28;20194;-73
2022/10/05 00:09:44;;;;;;;2.42;2.22;;;12.20;99.90;;;;;;5066430;28;20230;-74
2022/10/05 00:12:15;;;;;;;2.55;2.35;;;12.20;99.90;;;;;;5068943;28;20283;-74
2022/10/05 00:14:44;;;;;;;2.17;2.08;;;12.10;99.90;;;;;;5072377;28;20225;-73
2022/10/05 00:17:16;;;;;;;2.28;2.17;;;12.10;99.90;;;;;;5070883;28;20202;-74
2022/10/05 00:19:45;;;;;;;2.08;1.98;;;12.10;99.90;;;;;;5077095;28;20224;-73
2022/10/05 00:22:16;;;;;;;2.53;2.33;;;12.10;99.90;;;;;;5074373;28;20217;-74
2022/10/05 00:24:43;;;;;;;2.20;2.10;;;12.10;99.90;;;;;;5084866;28;20225;-75
2022/10/05 00:27:18;;;;;;;2.42;2.22;;;12.10;99.90;;;;;;5067870;28;20201;-75
2022/10/05 00:29:45;;;;;;;2.28;2.17;;;12.10;99.90;;;;;;5069041;28;20244;-74
2022/10/05 00:32:14;;;;;;;2.08;1.98;;;12.10;99.90;;;;;;5069592;28;20210;-74
2022/10/05 00:34:42;;;;;;;2.22;2.13;;;12.10;99.90;;;;;;5067150;28;20233;-74
2022/10/05 00:37:10;;;;;;;1.85;1.75;;;12.10;99.90;;;;;;5068562;28;20198;-73
2022/10/05 00:39:39;;;;;;;2.20;2.10;;;12.10;99.90;;;;;;5063239;28;20324;-75
2022/10/05 00:42:27;;;;;;;2.10;2.00;;;12.10;99.90;;;;;;5069062;28;21913;-73
2022/10/05 00:44:59;;;;;;;2.65;2.45;;;12.10;99.90;;;;;;5066964;28;20210;-74
2022/10/05 00:47:54;;;;;;;2.35;2.25;;;12.00;99.90;;;;;;5067344;28;20198;-74
2022/10/05 00:50:52;;;;;;;2.22;2.10;;;12.00;99.90;;;;;;5069868;28;20225;-75
2022/10/05 00:53:30;;;;;;;2.35;2.25;;;11.90;99.90;;;;;;5057611;28;20618;-74
2022/10/05 00:56:03;;;;;;;2.20;2.10;;;11.90;99.90;;;;;;5069290;28;20197;-75
2022/10/05 00:58:46;;;;;;;2.72;2.53;;;11.90;99.90;;;;;;5066827;28;20279;-74
2022/10/05 01:01:17;;;;;;;2.38;2.17;;;12.00;99.90;;;;;;5069001;28;20253;-74
2022/10/05 01:03:56;;;;;;;2.15;2.05;;;12.00;99.90;;;;;;5066276;28;20222;-74
2022/10/05 01:06:31;;;;;;;2.53;1.90;;;12.00;99.90;;;;;;5068708;28;20201;-76
2022/10/05 01:09:07;;;;;;;2.30;2.20;;;12.00;99.90;;;;;;5068844;28;20217;-74
2022/10/05 01:11:42;;;;;;;1.92;1.83;;;12.00;99.90;;;;;;5076018;28;20218;-74
2022/10/05 01:14:17;;;;;;;2.08;1.98;;;12.00;99.90;;;;;;5071000;28;20216;-74
2022/10/05 01:16:51;;;;;;;2.15;1.95;;;11.90;99.90;;;;;;5078168;28;20201;-74
2022/10/05 01:19:43;;;;;;;2.53;2.33;;;11.90;99.90;;;;;;5082112;28;20277;-75
2022/10/05 01:22:21;;;;;;;2.10;1.90;;;11.90;99.90;;;;;;5068520;28;20275;-74
2022/10/05 01:25:03;;;;;;;2.15;2.05;;;11.80;99.90;;;;;;5069973;28;20768;-73
2022/10/05 01:27:47;;;;;;;2.00;1.90;;;11.70;99.90;;;;;;5065731;28;20205;-73
2022/10/05 01:30:17;;;;;;;2.00;1.90;;;11.60;99.90;;;;;;5066004;28;20603;-73
2022/10/05 01:32:50;;;;;;;1.95;1.83;;;11.60;99.90;;;;;;5068777;28;20217;-75
2022/10/05 01:35:33;;;;;;;2.42;2.25;;;11.60;99.90;;;;;;5067578;28;20218;-74
2022/10/05 01:38:15;;;;;;;2.33;2.22;;;11.60;99.90;;;;;;5068827;28;20222;-76
2022/10/05 01:40:55;;;;;;;2.22;2.13;;;11.50;99.90;;;;;;5087347;28;20239;-74
2022/10/05 01:43:33;;;;;;;2.28;2.17;;;11.50;99.90;;;;;;5088161;28;20286;-74
2022/10/05 01:46:07;;;;;;;2.00;1.90;;;11.40;99.90;;;;;;5089223;28;20200;-74
2022/10/05 01:48:44;;;;;;;1.90;1.80;;;11.40;99.90;;;;;;5086396;28;20679;-74
2022/10/05 01:51:19;;;;;;;2.33;2.17;;;11.40;99.90;;;;;;5069515;28;20584;-74
2022/10/05 01:53:56;;;;;;;2.40;2.20;;;11.50;99.90;;;;;;5067428;28;20221;-74
2022/10/05 01:56:31;;;;;;;2.00;1.90;;;11.50;99.90;;;;;;5065072;28;20198;-73
2022/10/05 01:59:14;;;;;;;2.10;2.00;;;11.50;99.90;;;;;;5064490;28;20638;-75
2022/10/05 02:01:49;;;;;;;2.63;2.50;;;11.40;99.90;;;;;;5066569;28;20735;-75
2022/10/05 02:04:23;;;;;;;2.33;2.22;;;11.40;99.90;;;;;;5067150;28;20727;-74
2022/10/05 02:06:51;;;;;;;2.75;2.55;;;11.30;99.90;;;;;;5073342;28;20197;-74
2022/10/05 02:09:22;;;;;;;2.28;2.17;;;11.30;99.90;;;;;;5075725;28;20225;-74
2022/10/05 02:11:54;;;;;;;2.35;2.15;;;11.30;99.90;;;;;;5083078;28;21482;-74
2022/10/05 02:14:26;;;;;;;2.17;2.08;;;11.30;99.90;;;;;;5072919;28;20271;-73
2022/10/05 02:16:57;;;;;;;2.55;2.35;;;11.20;99.90;;;;;;5073256;28;20194;-74
2022/10/05 02:19:29;;;;;;;2.35;2.22;;;11.20;99.90;;;;;;5070036;28;20214;-75
2022/10/05 02:22:03;;;;;;;2.03;1.92;;;11.20;99.90;;;;;;5070534;28;20233;-74
2022/10/05 02:24:36;;;;;;;2.10;2.00;;;11.20;99.90;;;;;;5084684;28;20271;-73
2022/10/05 02:27:05;;;;;;;2.47;2.28;;;11.20;99.90;;;;;;5091105;28;20217;-74
2022/10/05 02:29:40;;;;;;;2.10;2.00;;;11.20;99.90;;;;;;5091359;28;20217;-74
2022/10/05 02:32:11;;;;;;;2.13;2.03;;;11.30;99.90;;;;;;5091892;28;20221;-74
2022/10/05 02:34:40;;;;;;;2.28;2.17;;;11.30;99.90;;;;;;5090380;28;20213;-75
2022/10/05 02:37:24;;;;;;;2.20;2.10;;;11.20;99.90;;;;;;5084819;28;20206;-72
2022/10/05 02:40:14;;;;;;;2.15;2.05;;;11.20;99.90;;;;;;5089191;28;20312;-73
2022/10/05 02:42:53;;;;;;;2.60;2.40;;;11.20;99.90;;;;;;5090653;28;20205;-74
2022/10/05 02:45:28;;;;;;;2.10;2.00;;;11.20;99.90;;;;;;5092473;28;20209;-74
2022/10/05 02:48:04;;;;;;;2.22;2.10;;;11.20;99.90;;;;;;5093141;28;20262;-74
2022/10/05 02:50:41;;;;;;;2.10;2.00;;;11.10;99.90;;;;;;5098202;28;20209;-73
2022/10/05 02:53:28;;;;;;;2.30;2.10;;;11.00;99.90;;;;;;5090029;28;20198;-74
2022/10/05 02:56:07;;;;;;;2.10;2.00;;;11.00;99.90;;;;;;5087603;28;20205;-74
2022/10/05 02:58:41;;;;;;;2.17;2.08;;;10.90;99.90;;;;;;5093638;28;20221;-74
2022/10/05 03:01:16;;;;;;;2.05;1.95;;;10.90;99.90;;;;;;5091517;28;20640;-74
2022/10/05 03:03:49;;;;;;;2.17;2.03;;;10.90;99.90;;;;;;5091772;28;20243;-75
2022/10/05 03:06:21;;;;;;;1.98;1.88;;;10.90;99.90;;;;;;5099583;28;20197;-75
2022/10/05 03:08:57;;;;;;;2.30;2.20;;;10.90;99.90;;;;;;5093795;28;20714;-74
2022/10/05 03:11:30;;;;;;;2.20;2.10;;;10.90;99.90;;;;;;5090025;28;20267;-75
2022/10/05 03:14:03;;;;;;;2.35;2.15;;;10.90;99.90;;;;;;5086221;28;20225;-74
2022/10/05 03:16:47;;;;;;;2.20;2.10;;;10.90;99.90;;;;;;5091508;28;20597;-74
2022/10/05 03:19:25;;;;;;;2.38;2.20;;;10.90;99.90;;;;;;5086691;28;20884;-74
2022/10/05 03:21:59;;;;;;;2.67;2.20;;;10.90;99.90;;;;;;5091676;28;20221;-75
2022/10/05 03:24:49;;;;;;;2.22;2.08;;;10.90;99.90;;;;;;5089644;28;20274;-75
2022/10/05 03:27:27;;;;;;;2.10;2.00;;;10.90;99.90;;;;;;5094642;28;20193;-74
2022/10/05 03:30:02;;;;;;;2.40;2.20;;;10.90;99.90;;;;;;5089333;28;20568;-74
2022/10/05 03:32:40;;;;;;;2.28;2.10;;;10.90;99.90;;;;;;5088202;28;20198;-74
2022/10/05 03:35:12;;;;;;;2.55;2.38;;;10.90;99.90;;;;;;5090753;28;20221;-74
2022/10/05 03:37:47;;;;;;;2.22;2.13;;;10.90;99.90;;;;;;5088639;28;20189;-75
2022/10/05 03:40:26;;;;;;;2.13;2.03;;;10.90;99.90;;;;;;5091462;28;20228;-76
2022/10/05 03:43:05;;;;;;;2.20;2.10;;;10.90;99.90;;;;;;5088759;28;20316;-76
2022/10/05 03:45:40;;;;;;;2.10;2.00;;;10.90;99.90;;;;;;5086307;28;20210;-74
2022/10/05 03:48:14;;;;;;;2.30;2.20;;;10.90;99.90;;;;;;5087277;28;20284;-74
2022/10/05 03:50:46;;;;;;;2.08;1.98;;;10.90;99.90;;;;;;5069443;28;20291;-74
2022/10/05 03:53:18;;;;;;;2.20;2.10;;;10.90;99.90;;;;;;5066765;28;20202;-74
2022/10/05 03:55:50;;;;;;;2.00;1.90;;;10.90;99.90;;;;;;5069456;28;20624;-75
2022/10/05 03:58:24;;;;;;;2.40;2.30;;;10.90;99.90;;;;;;5069798;28;20260;-74
2022/10/05 04:01:01;;;;;;;2.40;2.30;;;10.90;99.90;;;;;;5082945;28;20214;-73
2022/10/05 04:03:35;;;;;;;2.22;2.13;;;10.80;99.90;;;;;;5072745;28;20696;-73
2022/10/05 04:06:08;;;;;;;2.35;2.10;;;10.80;99.90;;;;;;5076831;28;20656;-74
2022/10/05 04:08:43;;;;;;;1.80;1.70;;;10.80;99.90;;;;;;5070370;28;20226;-74
2022/10/05 04:11:14;;;;;;;2.05;1.95;;;10.80;99.90;;;;;;5062695;28;20217;-75
2022/10/05 04:13:46;;;;;;;2.22;2.13;;;10.80;99.90;;;;;;5069740;28;20575;-74
2022/10/05 04:16:17;;;;;;;2.03;1.92;;;10.80;99.90;;;;;;5072194;28;20202;-77
2022/10/05 04:18:50;;;;;;;2.47;2.28;;;10.70;99.90;;;;;;5069527;28;20218;-77
2022/10/05 04:21:23;;;;;;;2.38;2.22;;;10.70;99.90;;;;;;5069353;28;20233;-74
2022/10/05 04:23:57;;;;;;;2.30;2.20;;;10.70;99.90;;;;;;5072089;28;20738;-76
2022/10/05 04:26:33;;;;;;;2.22;2.10;;;10.70;99.90;;;;;;5074359;28;20324;-76
2022/10/05 04:29:07;;;;;;;2.20;2.03;;;10.70;99.90;;;;;;5072139;28;20217;-75
2022/10/05 04:31:50;;;;;;;2.63;2.17;;;10.70;99.90;;;;;;5065857;28;20559;-75
2022/10/05 04:34:52;;;;;;;2.13;2.03;;;10.70;99.90;;;;;;5074304;28;20213;-78
2022/10/05 04:37:28;;;;;;;2.50;2.30;;;10.70;99.90;;;;;;5070654;28;20193;-76
2022/10/05 04:40:12;;;;;;;2.25;2.05;;;10.70;99.90;;;;;;5064231;28;20228;-76
2022/10/05 04:42:45;;;;;;;2.10;2.00;;;10.70;99.90;;;;;;5071478;28;20201;-78
2022/10/05 04:45:27;;;;;;;1.77;1.70;;;10.70;99.90;;;;;;5071441;28;20711;-76
2022/10/05 04:48:19;;;;;;;2.15;2.05;;;10.70;99.90;;;;;;5067277;28;20680;-75
2022/10/05 04:51:00;;;;;;;2.10;2.00;;;10.70;99.90;;;;;;5068165;28;20241;-78
2022/10/05 04:53:33;;;;;;;1.83;1.73;;;10.70;99.90;;;;;;5071883;28;20218;-76
2022/10/05 04:56:09;;;;;;;2.10;2.00;;;10.60;99.90;;;;;;5072889;28;20194;-75
2022/10/05 04:58:47;;;;;;;2.65;2.45;;;10.60;99.90;;;;;;5065122;28;20222;-75
2022/10/05 05:01:32;;;;;;;2.42;2.33;;;10.60;99.90;;;;;;5067400;28;20209;-75
2022/10/05 05:04:20;;;;;;;2.30;2.20;;;10.50;99.90;;;;;;5064032;28;20235;-76
2022/10/05 05:07:00;;;;;;;2.30;2.10;;;10.50;99.90;;;;;;5062886;28;20228;-77
2022/10/05 05:09:54;;;;;;;2.40;2.30;;;10.40;99.90;;;;;;5065404;28;20217;-76
2022/10/05 05:12:33;;;;;;;2.65;2.45;;;10.40;99.90;;;;;;5068777;28;20191;-74
2022/10/05 05:15:20;;;;;;;2.55;2.45;;;10.40;99.90;;;;;;5064573;28;20229;-75
2022/10/05 05:18:19;;;;;;;2.58;2.38;;;10.40;99.90;;;;;;5066918;28;20248;-76
2022/10/05 05:20:56;;;;;;;2.20;2.00;;;10.40;99.90;;;;;;5045901;28;20241;-75
2022/10/05 05:23:32;;;;;;;2.40;2.30;;;10.40;99.90;;;;;;5065716;28;20869;-76
2022/10/05 05:26:11;;;;;;;2.42;2.33;;;10.40;99.90;;;;;;5065763;28;20668;-75
2022/10/05 05:28:47;;;;;;;2.65;2.55;;;10.40;99.90;;;;;;5061921;28;20312;-75
2022/10/05 05:31:26;;;;;;;2.10;2.00;;;10.40;99.90;;;;;;5064389;28;20715;-76
2022/10/05 05:34:03;;;;;;;2.90;2.70;;;10.40;99.90;;;;;;5066414;28;20232;-77
2022/10/05 05:36:48;;;;;;;2.40;2.28;;;10.40;99.90;;;;;;5065658;28;20197;-75
2022/10/05 05:39:26;;;;;;;2.28;2.17;;;10.40;99.90;;;;;;5062826;28;20646;-75
2022/10/05 05:42:00;;;;;;;2.20;2.10;;;10.40;99.90;;;;;;5066232;28;20708;-74
2022/10/05 05:44:30;;;;;;;2.40;2.20;;;10.40;99.90;;;;;;5067550;28;20715;-77
2022/10/05 05:47:01;;;;;;;2.10;2.00;;;10.40;99.90;;;;;;5069441;28;20194;-76
2022/10/05 05:49:49;;;;;;;2.20;2.00;;;10.40;99.90;;;;;;5085721;28;20232;-76
2022/10/05 05:52:22;;;;;;;2.70;1.90;;;10.40;99.90;;;;;;5070725;28;20213;-75
2022/10/05 05:54:55;;;;;;;2.00;1.90;;;10.40;99.90;;;;;;5071010;28;20218;-75
2022/10/05 05:57:27;;;;;;;2.20;2.10;;;10.40;99.90;;;;;;5064531;28;20271;-74
2022/10/05 06:00:04;;;;;;;2.33;2.22;;;10.40;99.90;;;;;;5065884;28;20252;-74
2022/10/05 06:02:38;;;;;;;2.10;2.00;;;10.40;99.90;;;;;;5072293;28;20298;-75
2022/10/05 06:05:23;;;;;;;1.90;1.80;;;10.50;99.90;;;;;;5069312;28;20214;-76
2022/10/05 06:07:52;;;;;;;2.50;2.30;;;10.50;99.90;;;;;;5070597;28;20612;-75
2022/10/05 06:10:29;;;;;;;2.08;1.98;;;10.50;99.90;;;;;;5068022;28;20990;-76
2022/10/05 06:13:03;;;;;;;1.90;1.80;;;10.50;99.90;;;;;;5066722;28;20204;-75
2022/10/05 06:15:37;;;;;;;2.72;2.53;;;10.60;99.90;;;;;;5072269;28;20554;-74
2022/10/05 06:18:11;;;;;;;3.30;3.00;;;10.60;99.90;;;;;;5067757;28;20201;-75
2022/10/05 06:20:42;;;;;;;2.60;2.40;;;10.60;99.90;;;;;;5067545;28;20222;-75
2022/10/05 06:23:16;;;;;;;2.72;2.53;;;11.00;99.90;;;;;;5067165;28;20214;-74
2022/10/05 06:26:03;;;;;;;2.60;2.40;;;11.30;99.90;;;;;;5066899;28;20208;-72
2022/10/05 06:28:30;;;;;;;2.58;2.38;;;11.60;99.90;;;;;;5073426;28;20213;-76
2022/10/05 06:31:10;;;;;;;2.40;2.30;;;12.20;99.90;;;;;;5069456;28;20630;-76
2022/10/05 06:33:47;;;;;;;2.10;1.90;;;13.00;99.90;;;;;;5068642;28;20221;-75
2022/10/05 06:36:23;;;;;;;2.00;1.90;;;13.80;99.90;;;;;;5074518;28;20620;-75
2022/10/05 06:39:26;;;;;;;2.05;1.95;;;14.40;99.90;;;;;;5071004;28;20221;-75
2022/10/05 06:42:18;;;;;;;2.30;2.10;;;15.00;99.90;;;;;;5073923;28;20217;-76
2022/10/05 06:44:53;;;;;;;2.25;2.13;;;15.40;99.90;;;;;;5042354;28;20230;-75
2022/10/05 06:47:31;;;;;;;2.10;2.00;;;15.70;99.90;;;;;;5072567;28;20198;-75
2022/10/05 06:50:09;;;;;;;2.25;2.05;;;15.90;99.90;;;;;;5065703;28;20913;-77
2022/10/05 06:52:42;;;;;;;3.65;1.95;;;16.00;99.90;;;;;;5066728;28;20198;-77
2022/10/05 06:55:19;;;;;;;2.53;2.33;;;16.00;99.90;;;;;;5067972;28;20221;-75
2022/10/05 06:58:12;;;;;;;2.67;2.45;;;16.10;99.90;;;;;;5065259;28;20252;-75
2022/10/05 07:00:44;;;;;;;3.45;2.20;;;16.30;99.90;;;;;;5071012;28;20590;-76
2022/10/05 07:03:23;;;;;;;2.35;2.15;;;16.50;99.90;;;;;;5068919;28;20715;-76
2022/10/05 07:06:03;;;;;;;3.17;2.20;;;16.60;99.90;;;;;;5067545;28;20193;-75
2022/10/05 07:08:42;;;;;;;2.47;1.92;;;16.70;99.90;;;;;;5065227;28;20220;-75
2022/10/05 07:11:23;;;;;;;3.17;2.15;;;16.80;99.90;;;;;;5066500;28;20232;-75
2022/10/05 07:14:11;;;;;;;2.95;2.25;;;17.00;99.90;;;;;;5075699;28;20221;-75
2022/10/05 07:16:47;;;;;;;2.65;2.08;;;17.00;99.90;;;;;;5069184;28;20205;-76
2022/10/05 07:19:25;;;;;;;2.40;2.15;;;17.20;99.90;;;;;;5068878;28;20210;-75
2022/10/05 07:22:08;;;;;;;2.30;2.10;;;17.20;99.90;;;;;;5070097;28;20218;-76
2022/10/05 07:24:42;;;;;;;1.98;1.88;;;17.40;99.90;;;;;;5066231;28;20229;-75
2022/10/05 07:27:14;;;;;;;2.17;2.03;;;17.60;99.90;;;;;;5067652;28;20218;-76
2022/10/05 07:29:50;;;;;;;2.17;1.98;;;17.70;99.90;;;;;;5068476;28;20223;-77
2022/10/05 07:32:31;;;;;;;2.08;1.98;;;17.80;99.90;;;;;;5070955;28;20237;-76
2022/10/05 07:35:08;;;;;;;3.30;2.00;;;17.70;99.90;;;;;;5066217;28;20302;-75
2022/10/05 07:37:56;;;;;;;4.10;2.15;;;17.70;99.90;;;;;;5069103;28;20226;-77
2022/10/05 07:40:29;;;;;;;2.90;2.20;;;18.00;99.90;;;;;;5070058;28;20864;-75
2022/10/05 07:43:06;;;;;;;3.10;2.22;;;18.50;99.90;;;;;;5066039;28;20222;-75
2022/10/05 07:45:44;;;;;;;3.70;2.40;;;18.70;99.90;;;;;;5065520;28;20711;-75
2022/10/05 07:48:20;;;;;;;3.05;2.13;;;18.80;99.90;;;;;;5068608;28;20198;-74
2022/10/05 07:50:57;;;;;;;2.58;2.00;;;18.90;99.90;;;;;;5067549;28;20221;-75
2022/10/05 07:53:30;;;;;;;2.15;2.05;;;18.90;99.90;;;;;;5069778;28;20244;-74
2022/10/05 07:56:03;;;;;;;2.30;2.10;;;19.00;99.90;;;;;;5070003;28;20194;-75
2022/10/05 07:58:37;;;;;;;3.03;2.15;;;19.10;99.90;;;;;;5066868;28;20218;-75
2022/10/05 08:01:15;;;;;;;2.00;1.90;;;19.20;99.90;;;;;;5064519;28;20214;-75
2022/10/05 08:03:52;;;;;;;2.10;1.90;;;19.20;99.90;;;;;;5071730;28;20237;-77
2022/10/05 08:06:46;;;;;;;2.10;1.90;;;19.40;99.90;;;;;;5070320;28;20883;-76
2022/10/05 08:09:37;;;;;;;3.85;2.10;;;19.50;99.90;;;;;;5064796;28;20595;-76
2022/10/05 08:12:18;;;;;;;2.67;2.47;;;19.70;99.90;;;;;;5069599;28;20704;-75
2022/10/05 08:14:52;;;;;;;2.35;1.92;;;19.60;99.90;;;;;;5071813;28;20226;-74
2022/10/05 08:17:33;;;;;;;3.90;2.30;;;19.50;99.90;;;;;;5068422;28;20287;-74
2022/10/05 08:20:16;;;;;;;3.60;2.15;;;19.40;99.90;;;;;;5068901;28;20220;-75
2022/10/05 08:22:47;;;;;;;4.05;2.00;;;19.30;99.90;;;;;;5068110;28;20771;-76
2022/10/05 08:25:22;;;;;;;2.22;2.03;;;19.10;99.90;;;;;;5068213;28;20222;-76
2022/10/05 08:27:52;;;;;;;4.00;1.73;;;19.30;99.90;;;;;;5066546;28;20266;-76
2022/10/05 08:30:20;;;;;;;2.83;2.25;;;19.40;99.90;;;;;;5090875;28;20225;-74
2022/10/05 08:32:55;;;;;;;2.42;2.20;;;19.30;99.90;;;;;;5091470;28;20678;-75
2022/10/05 08:35:30;;;;;;;2.55;2.20;;;19.50;99.90;;;;;;5068034;28;20220;-74
2022/10/05 08:37:58;;;;;;;2.78;2.42;;;19.80;99.90;;;;;;5064551;28;20703;-75
2022/10/05 08:40:57;;;;;;;4.05;2.50;;;19.70;99.90;;;;;;5087959;28;20225;-75
2022/10/05 08:43:49;;;;;;;2.40;2.20;;;19.60;99.90;;;;;;5070662;28;20253;-79
2022/10/05 08:46:39;;;;;;;3.05;1.90;;;19.70;99.90;;;;;;5075003;28;20656;-77
2022/10/05 08:49:37;;;;;;;2.22;1.90;;;19.90;99.90;;;;;;5086487;28;20225;-77
2022/10/05 08:52:29;;;;;;;2.40;2.20;;;20.20;99.90;;;;;;5084705;28;20317;-78
2022/10/05 08:55:38;;;;;;;2.03;1.83;;;20.00;99.90;;;;;;5060724;28;20214;-78
2022/10/05 08:58:36;;;;;;;2.75;2.00;;;20.00;99.90;;;;;;5063178;28;20251;-77
2022/10/05 09:01:10;;;;;;;3.03;2.00;;;20.20;99.90;;;;;;5063813;28;20359;-77
2022/10/05 09:04:04;;;;;;;2.17;2.00;;;20.00;99.90;;;;;;5064256;28;20308;-77
2022/10/05 09:07:06;;;;;;;3.35;2.13;;;20.40;99.90;;;;;;5068917;28;20656;-76
2022/10/05 09:10:03;;;;;;;2.75;2.00;;;20.60;99.90;;;;;;5058626;28;20217;-77
2022/10/05 09:12:46;;;;;;;2.08;1.90;;;21.00;99.90;;;;;;5066534;28;20194;-75
2022/10/05 09:15:44;;;;;;;2.65;2.20;;;21.10;99.90;;;;;;5069690;28;20218;-76
2022/10/05 09:18:42;;;;;;;2.53;2.30;;;20.90;99.90;;;;;;5069500;28;20244;-77
2022/10/05 09:21:18;;;;;;;2.35;2.15;;;20.80;99.90;;;;;;5069746;28;20234;-76
2022/10/05 09:23:55;;;;;;;2.30;2.10;;;20.80;99.90;;;;;;5084968;28;20224;-77
2022/10/05 09:26:45;;;;;;;3.83;1.80;;;20.70;99.90;;;;;;5073307;28;20194;-75
2022/10/05 09:30:00;;;;;;;2.17;1.98;;;20.80;99.90;;;;;;5070661;28;20218;-75
2022/10/05 09:32:54;;;;;;;3.72;2.17;;;20.90;99.90;;;;;;5069787;28;20186;-76
2022/10/05 09:35:51;;;;;;;2.17;1.98;;;20.90;99.90;;;;;;5069543;28;20677;-76
2022/10/05 09:38:25;;;;;;;2.78;1.92;;;21.00;99.90;;;;;;5068075;28;20226;-78
2022/10/05 09:41:30;;;;;;;2.33;1.90;;;20.80;99.90;;;;;;5071469;28;20213;-76
2022/10/05 09:44:26;;;;;;;2.83;2.10;;;20.80;99.90;;;;;;5076331;28;20225;-76
2022/10/05 09:47:13;;;;;;;3.70;2.20;;;20.70;99.90;;;;;;5081936;28;20244;-80
2022/10/05 09:50:17;;;;;;;2.20;2.00;;;20.70;99.90;;;;;;5075037;28;20218;-78
2022/10/05 09:52:56;;;;;;;4.38;1.92;;;21.00;99.90;;;;;;5067699;28;20579;-79
2022/10/05 09:55:58;;;;;;;2.33;1.80;;;20.90;99.90;;;;;;5063782;28;20218;-77
2022/10/05 09:58:55;;;;;;;1.95;1.75;;;21.10;99.90;;;;;;5064816;28;20796;-77
2022/10/05 10:01:34;;;;;;;2.97;1.95;;;21.50;99.90;;;;;;5062983;28;20279;-76
2022/10/05 10:04:24;;;;;;;2.35;1.80;;;21.60;99.90;;;;;;5058194;28;20707;-74
2022/10/05 10:07:17;;;;;;;1.70;1.60;;;21.70;99.90;;;;;;5059341;28;20247;-74
2022/10/05 10:10:02;;;;;;;2.38;1.63;;;21.80;99.90;;;;;;5060019;28;20607;-76
2022/10/05 10:13:00;;;;;;;1.73;1.63;;;21.70;99.90;;;;;;5062600;28;20664;-78
2022/10/05 10:15:51;;;;;;;1.70;1.33;;;21.80;99.90;;;;;;5083400;28;20209;-76
2022/10/05 10:18:28;;;;;;;1.85;1.75;;;22.10;99.90;;;;;;5080310;28;20694;-76
2022/10/05 10:21:32;;;;;;;2.65;1.98;;;22.10;99.90;;;;;;5064051;28;20305;-77
2022/10/05 10:24:18;;;;;;;2.22;1.95;;;22.30;99.90;;;;;;5063478;28;20329;-77
2022/10/05 10:27:26;;;;;;;1.73;1.55;;;21.90;99.90;;;;;;5066851;28;20229;-77
2022/10/05 10:30:34;;;;;;;1.90;1.80;;;21.50;99.90;;;;;;5065240;28;20304;-78
2022/10/05 10:33:22;;;;;;;2.85;1.70;;;21.70;99.90;;;;;;5051122;28;20201;-76
2022/10/05 10:35:57;;;;;;;1.90;1.70;;;21.80;99.90;;;;;;5067233;28;20190;-76
2022/10/05 10:38:39;;;;;;;1.60;1.50;;;22.10;99.90;;;;;;5068708;28;20229;-76
2022/10/05 10:41:34;;;;;;;1.90;1.42;;;22.40;99.90;;;;;;5072492;28;20289;-78
2022/10/05 10:44:33;;;;;;;1.75;1.55;;;22.50;99.90;;;;;;5066912;28;20230;-77
2022/10/05 10:47:27;;;;;;;1.88;1.77;;;22.40;99.90;;;;;;5063699;28;20259;-76
2022/10/05 10:50:32;;;;;;;3.60;1.80;;;22.20;99.90;;;;;;5059101;28;20214;-75
2022/10/05 10:53:11;;;;;;;2.05;1.85;;;22.10;99.90;;;;;;5064892;28;20203;-76
2022/10/05 10:55:47;;;;;;;1.67;1.58;;;22.00;99.90;;;;;;5062931;28;20209;-77
2022/10/05 10:58:51;;;;;;;2.45;1.73;;;22.10;99.90;;;;;;5064762;28;20231;-77
2022/10/05 11:01:32;;;;;;;5.32;1.95;;;22.20;99.90;;;;;;5066250;28;20699;-77
2022/10/05 11:04:42;;;;;;;1.85;1.75;;;22.30;99.90;;;;;;5062899;28;20221;-77
2022/10/05 11:07:48;;;;;;;1.92;1.67;;;22.30;99.90;;;;;;5064190;28;20213;-77
2022/10/05 11:10:38;;;;;;;1.50;1.40;;;22.20;99.90;;;;;;5064155;28;20699;-76
2022/10/05 11:13:31;;;;;;;1.58;1.48;;;22.00;99.90;;;;;;5065959;28;20236;-79
2022/10/05 11:16:20;;;;;;;2.60;1.98;;;22.00;99.90;;;;;;5071571;28;20205;-76
2022/10/05 11:19:07;;;;;;;1.73;1.55;;;22.20;99.90;;;;;;5066741;28;20233;-76
2022/10/05 11:21:44;;;;;;;1.70;1.60;;;22.20;99.90;;;;;;5064647;28;20561;-77
2022/10/05 11:24:37;;;;;;;1.92;1.60;;;22.00;99.90;;;;;;5063491;28;20617;-76
2022/10/05 11:27:22;;;;;;;1.50;1.40;;;22.10;99.90;;;;;;5065499;28;20197;-76
2022/10/05 11:30:19;;;;;;;1.88;1.45;;;22.30;99.90;;;;;;5061972;28;20592;-78
2022/10/05 11:33:13;;;;;;;2.15;1.95;;;22.40;99.90;;;;;;5067923;28;20608;-77
2022/10/05 11:36:07;;;;;;;1.95;1.85;;;22.50;99.90;;;;;;5066991;28;20221;-78
2022/10/05 11:39:11;;;;;;;2.00;1.88;;;22.10;99.90;;;;;;5062999;28;20816;-77
2022/10/05 11:42:10;;;;;;;2.45;1.77;;;22.00;99.90;;;;;;5064407;28;20225;-76
2022/10/05 11:45:07;;;;;;;1.90;1.80;;;22.00;99.90;;;;;;5065153;28;20244;-76
2022/10/05 11:47:53;;;;;;;1.70;1.60;;;22.30;99.90;;;;;;5052531;28;20206;-78
2022/10/05 11:50:24;;;;;;;2.83;2.20;;;22.50;99.90;;;;;;5065694;28;20284;-77
2022/10/05 11:52:57;;;;;;;2.33;1.98;;;22.70;99.90;;;;;;5065332;28;20293;-79
2022/10/05 11:55:29;;;;;;;1.88;1.60;;;23.00;99.90;;;;;;5063368;28;20225;-78
2022/10/05 11:58:01;;;;;;;2.08;1.63;;;23.40;99.90;;;;;;5066757;28;20278;-76
2022/10/05 12:00:36;;;;;;;3.15;2.05;;;23.50;99.90;;;;;;5067900;28;20268;-78
2022/10/05 12:03:29;;;;;;;3.33;2.10;;;23.40;99.90;;;;;;5070203;28;20568;-78
2022/10/05 12:06:40;;;;;;;1.80;1.70;;;23.10;99.90;;;;;;5060529;28;20198;-80
2022/10/05 12:09:25;;;;;;;2.38;2.17;;;23.10;99.90;;;;;;5019045;28;20211;-80
2022/10/05 12:12:04;;;;;;;2.53;2.13;;;23.00;99.90;;;;;;5064312;28;20222;-77
2022/10/05 12:14:44;;;;;;;2.60;2.40;;;23.00;99.90;;;;;;5060075;28;20232;-78
2022/10/05 12:17:22;;;;;;;2.95;2.45;;;22.90;99.90;;;;;;5068898;28;20202;-79
2022/10/05 12:19:54;;;;;;;2.45;2.33;;;22.80;99.90;;;;;;5067480;28;20336;-78
2022/10/05 12:22:28;;;;;;;2.80;2.30;;;22.70;99.90;;;;;;5066168;28;20787;-78
2022/10/05 12:25:16;;;;;;;2.78;2.03;;;22.60;99.90;;;;;;5067654;28;20233;-77
2022/10/05 12:27:45;;;;;;;2.85;2.20;;;22.60;99.90;;;;;;5064715;28;20205;-77
2022/10/05 12:30:18;;;;;;;2.72;2.08;;;22.70;99.90;;;;;;5057641;28;20197;-79
2022/10/05 12:32:55;;;;;;;2.75;2.55;;;22.90;99.90;;;;;;5065945;28;20198;-77
2022/10/05 12:35:30;;;;;;;3.45;2.83;;;23.20;99.90;;;;;;5066821;28;20778;-77
2022/10/05 12:38:06;;;;;;;4.15;3.15;;;23.40;99.90;;;;;;5060098;28;20204;-77
2022/10/05 12:40:40;;;;;;;3.83;3.00;;;23.50;99.90;;;;;;5064924;28;20240;-77
2022/10/05 12:43:15;;;;;;;3.67;3.38;;;23.50;99.90;;;;;;5064783;28;21744;-78
2022/10/05 12:46:00;;;;;;;3.78;3.38;;;23.30;99.90;;;;;;5062774;28;20226;-77
2022/10/05 12:48:55;;;;;;;4.07;3.78;;;23.20;99.90;;;;;;5067904;28;20684;-77
2022/10/05 12:51:30;;;;;;;3.35;2.92;;;23.00;99.90;;;;;;5066434;28;22411;-78
2022/10/05 12:54:04;;;;;;;4.13;3.78;;;23.30;99.90;;;;;;5062693;28;20695;-77
2022/10/05 12:56:42;;;;;;;3.88;3.58;;;23.50;99.90;;;;;;5065472;28;20218;-78
2022/10/05 12:59:23;;;;;;;3.90;3.58;;;23.40;99.90;;;;;;5064967;28;20236;-78
2022/10/05 13:01:59;;;;;;;3.58;3.15;;;23.40;99.90;;;;;;5082485;28;20229;-77
2022/10/05 13:04:37;;;;;;;3.38;3.08;;;23.20;99.90;;;;;;5086879;28;20225;-78
2022/10/05 13:07:21;;;;;;;4.72;3.95;;;23.30;99.90;;;;;;5086479;28;20284;-77
2022/10/05 13:09:57;;;;;;;4.22;3.83;;;23.50;99.90;;;;;;5086911;28;20225;-77
2022/10/05 13:12:34;;;;;;;4.20;3.67;;;23.60;99.90;;;;;;5082829;28;20675;-77
2022/10/05 13:15:08;;;;;;;3.22;2.92;;;23.50;99.90;;;;;;5085212;28;20232;-77
2022/10/05 13:17:44;;;;;;;3.25;2.95;;;23.50;99.90;;;;;;5085941;28;20225;-77
2022/10/05 13:20:20;;;;;;;4.57;3.80;;;23.70;99.90;;;;;;5087591;28;20220;-78
2022/10/05 13:22:54;;;;;;;4.18;3.30;;;23.80;99.90;;;;;;5089833;28;20292;-76
2022/10/05 13:25:28;;;;;;;3.40;3.10;;;23.80;99.90;;;;;;5080175;28;20213;-77
2022/10/05 13:28:10;;;;;;;3.30;3.00;;;24.00;99.90;;;;;;5083946;28;20556;-77
2022/10/05 13:30:40;;;;;;;3.70;3.40;;;24.30;99.90;;;;;;5086897;28;20219;-77
2022/10/05 13:33:19;;;;;;;6.40;3.72;;;24.50;99.90;;;;;;5088740;28;20205;-77
2022/10/05 13:35:52;;;;;;;3.50;3.20;;;24.60;99.90;;;;;;5085058;28;20225;-77
2022/10/05 13:38:35;;;;;;;5.55;5.03;;;24.60;99.90;;;;;;5084588;28;20197;-78
2022/10/05 13:41:10;;;;;;;7.18;6.47;;;24.20;99.90;;;;;;5071826;28;20220;-77
2022/10/05 13:43:42;;;;;;;5.90;5.35;;;23.50;99.90;;;;;;5069000;28;20204;-77
2022/10/05 13:46:16;;;;;;;6.72;6.07;;;23.10;99.90;;;;;;5067713;28;20214;-77
2022/10/05 13:49:03;;;;;;;5.78;5.28;;;22.80;99.90;;;;;;5068504;28;20202;-77
2022/10/05 13:51:38;;;;;;;6.20;4.72;;;22.60;99.90;;;;;;5064654;28;20222;-77
2022/10/05 13:54:15;;;;;;;6.95;6.35;;;22.60;99.90;;;;;;5070402;28;20198;-77
2022/10/05 13:56:47;;;;;;;7.55;6.82;;;22.50;99.90;;;;;;5069337;28;20245;-77